x

Portland 12 Nm Southeast Of Portland,me (44007) Wave Buoy

9:50pm - Tue 25th Nov 2014 All times are EST. -5 hours from GMT.

  • Sig Wave height 3.9ft
  • Swell Direction
  • Peak Period 10s
  • Average Period 6s
  • Wind
    13mph, 16mph gusts
  • Sea Temp 50°f
  • 空気 Temp 50°f
  • Sea Pressure 1016.9mb
  • Portland 12 Nm Southeast Of Portland,me
  • Portland 12 Nm Southeast Of Portland,me

More Historic Weather Station data

Upgrade to MSW Pro to gain access to the past 30 days of data for over 8000 Wavebouys and Weather Stations around the globe.

Join Pro

Comparision Forecast

View Surf forecast
   
Tue 11/25 9:50pm 4ft 10s 6s 13 16 mph 1016.9mb 50f 50f
8:50pm 4ft 9s 6s 13 18 mph 1016.1mb 50f 51f
7:50pm 4ft 9s 6s 16 18 mph 1015.2mb 50f 51f
6:50pm 4.5ft 10s 6s 18 20 mph 1014.2mb 50f 53f
5:50pm 4ft 10s 6s 16 22 mph 1013.1mb 50f 54f
4:50pm 4.5ft 10s 6s 13 18 mph 1011.7mb 50f 54f
3:50pm 4.5ft 11s 6s 13 16 mph 1010.5mb 50f 55f
2:50pm 4.5ft 10s 6s 18 20 mph 1009.8mb 50f 56f
1:50pm 4.5ft 8s 6s 18 22 mph 1009.2mb 50f 57f
12:50pm 4.5ft 10s 6s 11 13 mph 1009.3mb 50f 55f
11:50am 5ft 6s 6s 16
mph
1008.9mb 50f 54f
10:50am 5ft 11s 5s 18 20 mph 1008.8mb 50f 54f
9:50am 6ft 8s 6s 20 22 mph 1008.6mb 50f 54f
8:50am 5.5ft 9s 5s 20 22 mph 1008.4mb 50f 54f
7:50am 6ft 8s 5s 18 22 mph 1007.4mb 50f 53f
6:50am 6ft 10s 6s 20 25 mph 1006.9mb 50f 54f
5:50am 6ft 9s 6s 16 20 mph 1005.6mb 50f 53f
4:50am 5.5ft 8s 6s 18 20 mph 1004.8mb 50f 54f
3:50am 6ft 8s 6s 18 20 mph 1004.3mb 50f 54f
2:50am 6ft 8s 6s 16 18 mph 1004.1mb 50f 55f
1:50am 6.5ft 9s 6s 18 20 mph 1003.4mb 50f 55f
12:50am 7ft 8s 6s 20 22 mph 1002.7mb 50f 55f
Mon 11/24 11:50pm 7ft 8s 6s 22 25 mph 1002.2mb 50f 55f
10:50pm 7ft 8s 6s 25 27 mph 1001.4mb 51f 55f
9:50pm 7ft 8s 6s 25 29 mph 1000.9mb 51f 55f
8:50pm 7ft 8s 6s 22 27 mph 1000.7mb 51f 56f
7:50pm 7.5ft 8s 6s 22 27 mph 1000.5mb 51f 55f
6:50pm 7ft 8s 6s 25 31 mph 1000.8mb 51f 56f
5:50pm 9ft 8s 6s 27 31 mph 1000.1mb 51f 56f
4:50pm 8ft 8s 6s 22 29 mph 999.8mb 51f 55f
3:50pm 8ft 8s 6s 22 29 mph 1000.3mb 51f 55f
2:50pm 9ft 8s 6s 25 29 mph 1000.7mb 51f 55f
1:50pm 8ft 8s 6s 25 31 mph 1001.5mb 51f 55f
12:50pm 9ft 8s 6s 29 36 mph 1002.2mb 51f 55f
11:50am 10ft 7s 6s 31 38 mph 1003.2mb 51f 55f
10:50am 8ft 6s 5s 36 43 mph 1004.2mb 51f 55f
9:50am 6ft 5s 5s 34 40 mph 1006.8mb 51f 55f
8:50am 4.5ft 4s 4s 29 36 mph 1008.8mb 51f 55f
7:50am 2.5ft 4s 4s 22 27 mph 1011.9mb 51f 53f
6:50am 2.5ft 4s 4s 20 22 mph 1013.2mb 50f 53f
5:50am 2.5ft 5s 4s 13 16 mph 1014.8mb 50f 51f
4:50am 2.5ft 4s 4s 16 20 mph 1016.2mb 50f 51f
3:50am 2.5ft 5s 4s 13 16 mph 1016.8mb 50f 51f
2:50am 2.5ft 4s 4s 11 13 mph 1017.5mb 50f 51f
1:50am 2ft 7s 4s 11 13 mph 1018mb 50f 51f
12:50am 2ft 7s 5s 9
mph
1018.4mb 50f 51f
Sun 11/23 11:50pm 2ft 8s 5s 11
mph
1019.4mb 50f 51f
10:50pm 2ft 5s 5s 7
mph
1019.4mb 50f 51f
9:50pm 2ft 5s 5s 2 4 mph 1019.1mb 50f 52f
8:50pm 2.5ft 5s 5s 4
mph
1019.8mb 50f 51f
7:50pm 2.5ft 5s 5s 4
mph
1020.7mb 50f 51f
6:50pm 2.5ft 5s 5s 9 11 mph 1019.9mb 50f 51f
5:50pm 2.5ft 5s 5s 9 11 mph 1019.4mb 51f 51f
4:50pm 2.5ft 5s 4s 11
mph
1019mb 51f 51f
3:50pm 2.5ft 5s 4s 9 11 mph 1018.9mb 51f 51f
2:50pm 2.5ft 6s 4s 13 18 mph 1018.4mb 51f 51f
1:50pm 3ft 6s 5s 11 13 mph 1018.1mb 51f 52f
12:50pm 3ft 6s 5s 11 13 mph 1017.9mb 51f 50f
11:50am 3.5ft 6s 4s 16 18 mph 1017.8mb 51f 48f
10:50am 3.5ft 6s  -  16 20 mph 1018.1mb 50f 47f
9:50am 3.5ft 6s 4s 18 22 mph 1018.5mb 50f 46f
8:50am 4ft 6s 5s 22 27 mph 1017.4mb 50f 46f
7:50am 4.5ft 6s 5s 22 25 mph 1017mb 50f 45f
6:50am 4.5ft 6s 5s 20 25 mph 1016.4mb 50f 45f
5:50am 4.5ft 7s 5s 22 25 mph 1015.8mb 50f 45f
4:50am 4.5ft 7s 5s 20 22 mph 1015.6mb 50f 44f
3:50am 5ft 8s 5s 25 27 mph 1015.1mb 50f 44f
2:50am 5ft 7s 5s 27 31 mph 1014.8mb 50f 44f
1:50am 5.5ft 8s 5s 27 29 mph 1014.9mb 50f 44f
12:50am 6ft 8s 5s 27 31 mph 1014.2mb 50f 44f
Sat 11/22 11:50pm 6ft 7s 5s 27 34 mph 1014.1mb 50f 44f
10:50pm 6ft 7s 5s 27 31 mph 1014.2mb 50f 44f
9:50pm 6ft 7s 5s 29 36 mph 1014.2mb 50f 44f
8:50pm 5ft 6s 5s 29 34 mph 1014.4mb 50f 44f
7:50pm 5ft 6s 4s 29 38 mph 1014.8mb 50f 44f
6:50pm 4.5ft 6s 4s 27 34 mph 1016mb 50f 44f
5:50pm 5ft 5s 4s 27 34 mph 1016.8mb 50f 42f
4:50pm 4.5ft 6s 4s 29 34 mph 1017mb 50f 42f
3:50pm 4ft 5s 4s 27 34 mph 1017.8mb 51f 40f
2:50pm 4ft 5s 4s 27 31 mph 1018.4mb 51f 39f
1:50pm 3.5ft 5s 4s 20 25 mph 1019.8mb 50f 37f
12:50pm 3.5ft 5s 4s 25 29 mph 1020.7mb 50f 35f
11:50am 3.5ft 4s 4s 27 31 mph 1021.7mb 50f 33f
10:50am 3ft 4s 4s 22 29 mph 1023.5mb 50f 31f
9:50am 2.5ft 4s 4s 20 27 mph 1025.5mb 50f 30f
8:50am 2.5ft 4s 4s 18 22 mph 1026.2mb 50f 29f
7:50am 2.5ft 4s 3s 18 25 mph 1026.9mb 50f 29f
6:50am 1.6ft 3s 3s 18 20 mph 1027.1mb 50f 28f
5:50am 1.6ft 3s 3s 18 25 mph 1027.4mb 50f 28f
4:50am 2ft 3s 3s 20 25 mph 1027.9mb 50f 28f